Time;durP1;ratioP1;P1;durP2;ratioP2;P2;SDS_P1;SDS_P2;PMS_P1;PMS_P2;Temp;Humidity;BMP_temperature;BMP_pressure;BME280_temperature;BME280_humidity;BME280_pressure;Samples;Min_cycle;Max_cycle;Signal;HPM_P1;HPM_P2
2023/08/29 00:00:33;;;;;;;4.07;1.73;;;18.80;83.60;;;;;;7391450;19;20007;-79
2023/08/29 00:03:03;;;;;;;4.88;1.58;;;18.70;83.90;;;;;;7389671;19;20026;-79
2023/08/29 00:05:32;;;;;;;5.93;1.67;;;18.70;84.10;;;;;;7387188;19;20014;-79
2023/08/29 00:08:01;;;;;;;2.17;1.73;;;18.70;84.10;;;;;;7410824;19;20006;-80
2023/08/29 00:10:32;;;;;;;3.20;1.70;;;18.70;84.00;;;;;;7389981;19;20387;-79
2023/08/29 00:13:01;;;;;;;4.40;1.75;;;18.70;83.90;;;;;;7391994;19;20007;-81
2023/08/29 00:15:30;;;;;;;5.43;1.83;;;18.70;83.80;;;;;;7392730;19;20034;-79
2023/08/29 00:18:00;;;;;;;4.90;2.08;;;18.70;83.80;;;;;;7389843;19;20030;-79
2023/08/29 00:20:28;;;;;;;4.00;1.83;;;18.70;83.90;;;;;;7388744;19;20033;-79
2023/08/29 00:22:57;;;;;;;10.57;1.60;;;18.80;84.10;;;;;;7411819;19;20007;-79
2023/08/29 00:25:26;;;;;;;4.47;2.03;;;18.70;84.10;;;;;;7391526;19;20003;-79
2023/08/29 00:27:57;;;;;;;4.43;1.65;;;18.80;84.20;;;;;;7388525;19;20010;-79
2023/08/29 00:30:26;;;;;;;1.60;1.45;;;18.70;84.20;;;;;;7388823;19;20038;-78
2023/08/29 00:32:54;;;;;;;3.75;2.08;;;18.70;84.20;;;;;;7388110;19;20007;-79
2023/08/29 00:35:23;;;;;;;5.00;2.30;;;18.70;84.20;;;;;;7388943;19;20031;-78
2023/08/29 00:37:52;;;;;;;4.72;2.17;;;18.70;84.20;;;;;;7409252;19;20019;-78
2023/08/29 00:40:21;;;;;;;3.92;1.73;;;18.70;84.10;;;;;;7387839;19;20007;-79
2023/08/29 00:42:50;;;;;;;2.45;1.80;;;18.70;84.00;;;;;;7387229;19;20090;-78
2023/08/29 00:45:21;;;;;;;4.47;2.17;;;18.70;84.10;;;;;;7388188;19;20018;-79
2023/08/29 00:47:50;;;;;;;;;;;18.70;84.10;;;;;;7389929;19;20003;-79
2023/08/29 00:50:19;;;;;;;6.10;1.60;;;18.80;83.90;;;;;;7390047;19;19915;-79
2023/08/29 00:52:48;;;;;;;5.03;2.00;;;18.70;83.90;;;;;;7413382;19;20010;-79
2023/08/29 00:55:18;;;;;;;4.88;1.90;;;18.70;83.90;;;;;;7390927;19;20003;-79
2023/08/29 00:57:47;;;;;;;2.47;1.83;;;18.70;84.00;;;;;;7392008;19;20007;-79
2023/08/29 01:00:16;;;;;;;2.55;2.00;;;18.70;84.10;;;;;;7390882;19;20015;-79
2023/08/29 01:02:48;;;;;;;2.75;1.77;;;18.60;84.10;;;;;;7389461;19;20034;-79
2023/08/29 01:05:16;;;;;;;2.80;2.08;;;18.60;84.30;;;;;;7385068;19;20002;-79
2023/08/29 01:07:45;;;;;;;6.00;1.92;;;18.60;84.40;;;;;;7406577;19;20007;-79
2023/08/29 01:10:14;;;;;;;2.97;1.88;;;18.60;84.70;;;;;;7386825;19;20003;-79
2023/08/29 01:12:50;;;;;;;8.95;2.05;;;18.50;85.00;;;;;;7386322;19;20018;-79
2023/08/29 01:15:24;;;;;;;2.53;1.90;;;18.40;85.20;;;;;;7388407;19;20401;-79
2023/08/29 01:17:59;;;;;;;2.33;1.50;;;18.40;85.20;;;;;;7388075;19;20024;-79
2023/08/29 01:20:29;;;;;;;3.22;1.55;;;18.40;85.50;;;;;;7387078;19;20007;-78
2023/08/29 01:23:10;;;;;;;5.82;1.67;;;18.40;85.50;;;;;;7408466;19;20026;-78
2023/08/29 01:25:48;;;;;;;3.85;1.83;;;18.40;85.50;;;;;;7384922;19;20126;-79
2023/08/29 01:28:20;;;;;;;3.95;1.67;;;18.40;85.50;;;;;;7385270;19;20015;-78
2023/08/29 01:30:49;;;;;;;4.70;1.88;;;18.40;85.30;;;;;;7385402;19;20257;-79
2023/08/29 01:33:19;;;;;;;4.78;2.13;;;18.40;85.30;;;;;;7386330;19;20014;-79
2023/08/29 01:35:49;;;;;;;2.28;1.85;;;18.40;85.30;;;;;;7386179;19;20029;-79
2023/08/29 01:38:18;;;;;;;2.90;1.90;;;18.30;85.30;;;;;;7383818;19;20024;-79
2023/08/29 01:40:47;;;;;;;4.13;1.60;;;18.30;85.40;;;;;;7408010;19;20047;-78
2023/08/29 01:43:18;;;;;;;2.80;1.95;;;18.30;85.50;;;;;;7386095;19;20011;-79
2023/08/29 01:45:47;;;;;;;5.13;1.80;;;18.30;85.50;;;;;;7386575;19;20006;-79
2023/08/29 01:48:16;;;;;;;3.45;1.95;;;18.30;85.70;;;;;;7386339;19;20024;-79
2023/08/29 01:50:47;;;;;;;3.60;2.03;;;18.30;85.70;;;;;;7385770;19;20007;-78
2023/08/29 01:53:16;;;;;;;3.22;2.17;;;18.40;85.60;;;;;;7385588;19;20006;-79
2023/08/29 01:55:46;;;;;;;9.93;2.10;;;18.40;85.40;;;;;;7405731;19;20002;-79
2023/08/29 01:58:19;;;;;;;2.65;1.90;;;18.40;85.40;;;;;;7384587;19;20022;-79
2023/08/29 02:00:48;;;;;;;2.50;1.90;;;18.30;85.50;;;;;;7383575;19;20010;-78
2023/08/29 02:03:17;;;;;;;5.25;2.20;;;18.30;85.40;;;;;;7385134;19;20007;-79
2023/08/29 02:05:46;;;;;;;2.42;2.00;;;18.30;85.20;;;;;;7383264;19;20014;-79
2023/08/29 02:08:15;;;;;;;3.40;2.45;;;18.30;85.20;;;;;;7384073;19;20030;-79
2023/08/29 02:10:43;;;;;;;5.35;2.13;;;18.30;85.60;;;;;;7404701;19;20007;-79
2023/08/29 02:13:12;;;;;;;7.25;2.38;;;18.30;85.50;;;;;;7383507;19;20038;-79
2023/08/29 02:15:43;;;;;;;6.88;2.53;;;18.30;85.70;;;;;;7383923;19;20038;-79
2023/08/29 02:18:12;;;;;;;3.45;1.92;;;18.30;86.00;;;;;;7383984;19;20023;-79
2023/08/29 02:20:41;;;;;;;6.03;2.13;;;18.30;86.00;;;;;;7382400;19;20346;-79
2023/08/29 02:23:10;;;;;;;4.78;2.33;;;18.30;86.10;;;;;;7404313;19;20003;-79
2023/08/29 02:25:38;;;;;;;4.82;2.25;;;18.30;86.10;;;;;;7385395;19;20017;-79
2023/08/29 02:28:07;;;;;;;9.48;2.50;;;18.40;86.30;;;;;;7389174;19;20014;-79
2023/08/29 02:30:38;;;;;;;2.88;1.77;;;18.30;86.40;;;;;;7395133;19;20022;-79
2023/08/29 02:33:10;;;;;;;2.42;1.85;;;18.30;86.70;;;;;;7393652;19;20003;-79
2023/08/29 02:35:38;;;;;;;;;;;18.30;86.90;;;;;;7394534;19;20034;-79
2023/08/29 02:38:07;;;;;;;3.30;2.20;;;18.40;87.00;;;;;;7417549;19;19919;-79
2023/08/29 02:40:36;;;;;;;2.58;2.00;;;18.40;87.00;;;;;;7396547;19;20394;-79
2023/08/29 02:43:04;;;;;;;7.55;2.30;;;18.30;87.20;;;;;;7396477;19;20505;-79
2023/08/29 02:45:33;;;;;;;2.88;2.08;;;18.30;87.50;;;;;;7394967;19;20016;-79
2023/08/29 02:48:02;;;;;;;2.70;2.03;;;18.30;87.70;;;;;;7394005;19;20020;-79
2023/08/29 02:50:34;;;;;;;5.43;2.20;;;18.30;87.70;;;;;;7394364;19;20016;-79
2023/08/29 02:53:03;;;;;;;4.38;2.53;;;18.30;87.70;;;;;;7416292;19;20007;-79
2023/08/29 02:55:32;;;;;;;4.40;2.22;;;18.30;87.90;;;;;;7395889;19;20438;-79
2023/08/29 02:58:00;;;;;;;2.33;1.90;;;18.40;88.00;;;;;;7395233;19;20023;-79
2023/08/29 03:00:29;;;;;;;4.53;2.35;;;18.40;88.00;;;;;;7394210;19;20028;-79
2023/08/29 03:02:58;;;;;;;4.10;2.33;;;18.40;87.90;;;;;;7391267;19;20009;-79
2023/08/29 03:05:27;;;;;;;4.10;2.50;;;18.50;88.70;;;;;;7391325;19;20011;-79
2023/08/29 03:07:58;;;;;;;4.07;2.03;;;18.40;87.90;;;;;;7413661;19;20007;-79
2023/08/29 03:10:27;;;;;;;6.63;2.33;;;18.40;88.10;;;;;;7392870;19;20006;-79
2023/08/29 03:12:55;;;;;;;4.90;2.45;;;18.30;88.20;;;;;;7395254;19;20030;-79
2023/08/29 03:15:24;;;;;;;2.45;2.22;;;18.30;88.60;;;;;;7391793;19;20009;-79
2023/08/29 03:17:53;;;;;;;6.30;2.38;;;18.20;88.60;;;;;;7389086;19;20254;-79
2023/08/29 03:20:22;;;;;;;3.53;2.13;;;18.20;88.90;;;;;;7388482;19;20017;-80
2023/08/29 03:22:51;;;;;;;3.78;2.20;;;18.20;89.10;;;;;;7411305;19;20017;-79
2023/08/29 03:25:24;;;;;;;5.63;2.78;;;18.20;89.10;;;;;;7387360;19;20262;-79
2023/08/29 03:27:52;;;;;;;4.57;2.25;;;18.20;89.10;;;;;;7387638;19;20007;-80
2023/08/29 03:30:21;;;;;;;9.32;2.80;;;18.20;89.10;;;;;;7389205;19;20014;-79
2023/08/29 03:32:51;;;;;;;5.93;2.60;;;18.20;88.90;;;;;;7387745;19;20017;-79
2023/08/29 03:35:21;;;;;;;5.93;2.20;;;18.30;88.90;;;;;;7389261;19;20018;-79
2023/08/29 03:37:50;;;;;;;3.42;2.33;;;18.30;88.80;;;;;;7408550;19;20006;-79
2023/08/29 03:40:19;;;;;;;3.38;2.13;;;18.30;88.90;;;;;;7389365;19;20031;-79
2023/08/29 03:42:50;;;;;;;3.30;2.30;;;18.30;88.90;;;;;;7389372;19;20099;-78
2023/08/29 03:45:19;;;;;;;6.15;2.90;;;18.30;88.80;;;;;;7388159;19;20014;-79
2023/08/29 03:47:48;;;;;;;3.75;2.20;;;18.30;88.90;;;;;;7387397;19;20007;-79
2023/08/29 03:50:16;;;;;;;5.10;2.60;;;18.30;89.60;;;;;;7389080;19;20227;-79
2023/08/29 03:52:45;;;;;;;4.63;2.88;;;18.20;88.90;;;;;;7407255;19;20358;-81
2023/08/29 03:55:14;;;;;;;7.47;2.47;;;18.20;89.00;;;;;;7386565;19;20694;-79
2023/08/29 03:57:43;;;;;;;5.78;2.60;;;18.30;89.10;;;;;;7386097;19;20006;-78
2023/08/29 04:00:16;;;;;;;3.95;2.25;;;18.30;89.00;;;;;;7384826;19;20011;-78
2023/08/29 04:02:45;;;;;;;5.57;2.63;;;18.30;89.00;;;;;;7385478;19;20002;-79
2023/08/29 04:05:17;;;;;;;6.53;2.33;;;18.30;88.90;;;;;;7386446;19;20011;-78
2023/08/29 04:07:46;;;;;;;3.30;2.20;;;18.30;88.90;;;;;;7407853;19;20015;-78
2023/08/29 04:10:16;;;;;;;6.13;2.53;;;18.30;88.90;;;;;;7385087;19;20020;-78
2023/08/29 04:12:44;;;;;;;5.80;2.35;;;18.30;88.90;;;;;;7384210;19;20006;-78
2023/08/29 04:15:16;;;;;;;3.63;2.58;;;18.40;88.80;;;;;;7383536;19;20011;-78
2023/08/29 04:17:44;;;;;;;5.75;2.75;;;18.40;88.80;;;;;;7386956;19;20002;-79
2023/08/29 04:20:16;;;;;;;5.95;2.83;;;18.30;88.70;;;;;;7386227;19;20007;-79
2023/08/29 04:22:44;;;;;;;4.68;3.10;;;18.20;88.80;;;;;;7411004;19;20022;-79
2023/08/29 04:25:13;;;;;;;6.30;2.55;;;18.20;89.10;;;;;;7389245;19;20007;-79
2023/08/29 04:27:44;;;;;;;3.97;2.60;;;18.20;89.10;;;;;;7394526;19;20002;-79
2023/08/29 04:30:16;;;;;;;7.03;2.85;;;18.10;89.20;;;;;;7394711;19;20019;-79
2023/08/29 04:32:46;;;;;;;8.05;2.83;;;18.20;89.20;;;;;;7396863;19;20027;-79
2023/08/29 04:35:15;;;;;;;4.43;3.03;;;18.10;89.10;;;;;;7398650;19;20047;-79
2023/08/29 04:37:48;;;;;;;5.65;2.90;;;18.10;89.10;;;;;;7411025;19;20007;-80
2023/08/29 04:40:21;;;;;;;5.72;2.88;;;18.10;88.70;;;;;;7387888;19;20369;-80
2023/08/29 04:42:50;;;;;;;7.10;2.97;;;18.10;88.80;;;;;;7387816;19;20007;-78
2023/08/29 04:45:23;;;;;;;7.45;3.10;;;18.10;88.90;;;;;;7388039;19;20232;-79
2023/08/29 04:47:52;;;;;;;5.20;3.28;;;18.00;89.00;;;;;;7387005;19;20002;-79
2023/08/29 04:50:20;;;;;;;5.03;2.95;;;17.90;89.10;;;;;;7385572;19;20226;-79
2023/08/29 04:52:53;;;;;;;7.03;2.97;;;17.90;89.20;;;;;;7408755;19;20007;-79
2023/08/29 04:55:22;;;;;;;7.47;2.60;;;17.90;89.30;;;;;;7386113;19;20003;-79
2023/08/29 04:57:51;;;;;;;5.28;2.85;;;17.90;89.10;;;;;;7386659;19;20014;-80
2023/08/29 05:00:23;;;;;;;8.43;3.90;;;17.90;88.90;;;;;;7388341;19;20006;-80
2023/08/29 05:02:52;;;;;;;5.85;3.00;;;17.80;88.80;;;;;;7387344;19;20499;-80
2023/08/29 05:05:21;;;;;;;7.22;3.75;;;17.80;88.90;;;;;;7385177;19;20002;-80
2023/08/29 05:07:50;;;;;;;8.48;3.08;;;17.80;89.00;;;;;;7407151;19;20021;-80
2023/08/29 05:10:18;;;;;;;6.90;3.75;;;17.80;89.70;;;;;;7385301;19;20011;-80
2023/08/29 05:12:47;;;;;;;7.05;3.30;;;17.80;88.80;;;;;;7386681;19;20007;-80
2023/08/29 05:15:16;;;;;;;4.85;3.47;;;17.80;88.80;;;;;;7385608;19;20010;-80
2023/08/29 05:17:48;;;;;;;6.30;3.88;;;17.70;89.60;;;;;;7384431;19;20045;-79
2023/08/29 05:20:17;;;;;;;10.82;4.53;;;17.70;89.00;;;;;;7383514;19;20011;-79
2023/08/29 05:22:45;;;;;;;7.15;4.10;;;17.80;89.10;;;;;;7405271;19;20007;-80
2023/08/29 05:25:14;;;;;;;6.90;4.13;;;17.70;88.80;;;;;;7385556;19;20027;-80
2023/08/29 05:27:43;;;;;;;5.20;3.20;;;17.70;88.90;;;;;;7385931;19;20068;-79
2023/08/29 05:30:13;;;;;;;9.32;3.20;;;17.70;88.90;;;;;;7385625;19;20011;-78
2023/08/29 05:32:42;;;;;;;8.70;3.60;;;17.70;88.60;;;;;;7383374;19;20041;-78
2023/08/29 05:35:13;;;;;;;7.03;3.85;;;17.70;88.60;;;;;;7407578;19;20251;-79
2023/08/29 05:37:41;;;;;;;;;;;17.70;88.80;;;;;;7386136;19;20693;-79
2023/08/29 05:40:11;;;;;;;10.20;5.05;;;17.70;88.90;;;;;;7387364;19;19931;-79
2023/08/29 05:42:40;;;;;;;7.38;3.80;;;17.70;88.70;;;;;;7386625;19;20085;-78
2023/08/29 05:45:10;;;;;;;7.60;3.70;;;17.70;88.60;;;;;;7385648;19;20007;-80
2023/08/29 05:47:38;;;;;;;6.65;3.45;;;17.70;88.60;;;;;;7386463;19;20033;-80
2023/08/29 05:50:09;;;;;;;5.18;3.42;;;17.80;88.60;;;;;;7407211;19;20003;-80
2023/08/29 05:52:40;;;;;;;12.02;3.20;;;17.80;88.60;;;;;;7385813;19;20006;-79
2023/08/29 05:55:10;;;;;;;9.90;3.33;;;17.80;88.50;;;;;;7386267;19;20012;-80
2023/08/29 05:57:39;;;;;;;4.95;3.20;;;17.80;88.60;;;;;;7388164;19;20017;-80
2023/08/29 06:00:12;;;;;;;4.35;3.20;;;17.80;88.60;;;;;;7387196;19;20003;-80
2023/08/29 06:02:40;;;;;;;9.80;3.60;;;17.80;88.70;;;;;;7388044;19;20010;-79
2023/08/29 06:05:10;;;;;;;14.98;3.53;;;17.90;88.70;;;;;;7416022;19;20033;-80
2023/08/29 06:07:41;;;;;;;9.35;4.20;;;17.90;88.70;;;;;;7390632;19;20022;-79
2023/08/29 06:10:11;;;;;;;6.20;3.40;;;17.90;88.80;;;;;;7396706;19;20010;-79
2023/08/29 06:12:40;;;;;;;10.93;3.80;;;17.90;88.80;;;;;;7392915;19;20013;-80
2023/08/29 06:15:10;;;;;;;34.15;6.60;;;18.00;89.00;;;;;;7392286;19;20011;-79
2023/08/29 06:17:39;;;;;;;43.65;9.82;;;18.00;89.00;;;;;;7392913;19;20003;-79
2023/08/29 06:20:11;;;;;;;77.85;13.52;;;18.00;89.10;;;;;;7414325;19;20018;-79
2023/08/29 06:22:42;;;;;;;52.30;10.40;;;18.10;89.40;;;;;;7392950;19;20083;-79
2023/08/29 06:25:12;;;;;;;34.90;8.15;;;18.10;89.50;;;;;;7391637;19;20007;-79
2023/08/29 06:27:41;;;;;;;35.03;7.95;;;18.20;89.80;;;;;;7391567;19;19999;-79
2023/08/29 06:30:13;;;;;;;691.20;140.32;;;18.20;89.90;;;;;;7391492;19;19999;-79
2023/08/29 06:32:41;;;;;;;;;;;18.20;90.00;;;;;;7396846;19;20023;-80
2023/08/29 06:35:11;;;;;;;25.70;7.63;;;18.30;90.10;;;;;;7417661;19;19915;-79
2023/08/29 06:37:42;;;;;;;10.90;5.30;;;18.30;90.10;;;;;;7397794;19;20042;-80
2023/08/29 06:40:12;;;;;;;12.43;4.93;;;18.30;90.20;;;;;;7394791;19;20030;-80
2023/08/29 06:42:41;;;;;;;9.00;4.95;;;18.30;90.30;;;;;;7394620;19;20010;-79
2023/08/29 06:45:11;;;;;;;15.57;5.03;;;18.40;90.40;;;;;;7394582;19;20026;-78
2023/08/29 06:47:40;;;;;;;11.35;5.30;;;18.40;90.40;;;;;;7393008;19;20007;-79
2023/08/29 06:50:09;;;;;;;13.13;5.72;;;18.40;90.50;;;;;;7415118;19;20003;-79
2023/08/29 06:52:38;;;;;;;15.27;6.07;;;18.50;90.70;;;;;;7395918;19;20021;-79
2023/08/29 06:55:11;;;;;;;12.13;6.78;;;18.40;91.00;;;;;;7396656;19;20012;-79
2023/08/29 06:57:39;;;;;;;15.23;7.35;;;18.40;91.60;;;;;;7394708;19;20019;-79
2023/08/29 07:00:10;;;;;;;13.00;7.90;;;18.30;91.40;;;;;;7393019;19;20256;-80
2023/08/29 07:02:39;;;;;;;16.90;9.00;;;18.20;91.70;;;;;;7390983;19;20010;-79
2023/08/29 07:05:08;;;;;;;17.13;8.20;;;17.90;92.00;;;;;;7411253;19;20015;-79
2023/08/29 07:07:40;;;;;;;19.80;9.07;;;17.90;92.40;;;;;;7386323;19;20013;-80
2023/08/29 07:10:11;;;;;;;;;;;17.90;92.40;;;;;;7389221;19;20003;-80
2023/08/29 07:12:40;;;;;;;17.58;9.00;;;18.10;92.60;;;;;;7387205;19;19919;-79
2023/08/29 07:15:10;;;;;;;15.30;8.77;;;18.10;92.50;;;;;;7386759;19;20007;-79
2023/08/29 07:17:38;;;;;;;18.13;9.65;;;18.20;92.50;;;;;;7388234;19;20034;-79
2023/08/29 07:20:09;;;;;;;20.25;10.25;;;18.10;92.70;;;;;;7407050;19;20011;-79
2023/08/29 07:22:40;;;;;;;17.70;10.15;;;18.20;92.50;;;;;;7389880;19;20007;-79
2023/08/29 07:25:12;;;;;;;16.77;9.82;;;18.10;92.60;;;;;;7389870;19;20009;-79
2023/08/29 07:27:41;;;;;;;19.13;9.82;;;18.00;92.80;;;;;;7386892;19;20014;-79
2023/08/29 07:30:14;;;;;;;17.50;9.23;;;18.10;92.90;;;;;;7387523;19;20110;-79
2023/08/29 07:32:44;;;;;;;30.08;10.30;;;18.00;93.00;;;;;;7395087;19;20035;-78
2023/08/29 07:35:13;;;;;;;14.65;8.52;;;18.10;93.00;;;;;;7402773;19;20026;-79
2023/08/29 07:37:42;;;;;;;12.88;8.18;;;18.30;92.80;;;;;;7413570;19;20031;-80
2023/08/29 07:40:14;;;;;;;14.27;8.30;;;18.40;92.80;;;;;;7391231;19;20015;-80
2023/08/29 07:42:43;;;;;;;15.98;7.85;;;18.40;92.70;;;;;;7388247;19;20007;-79
2023/08/29 07:45:15;;;;;;;12.10;7.10;;;18.50;92.70;;;;;;7387639;19;20006;-80
2023/08/29 07:47:44;;;;;;;12.55;6.63;;;18.60;92.80;;;;;;7385874;19;19999;-80
2023/08/29 07:50:13;;;;;;;12.82;5.55;;;18.80;92.60;;;;;;7386129;19;20099;-78
2023/08/29 07:52:41;;;;;;;14.32;6.18;;;18.80;92.70;;;;;;7408643;19;19999;-79
2023/08/29 07:55:13;;;;;;;10.80;4.95;;;18.70;92.30;;;;;;7386392;19;20044;-80
2023/08/29 07:57:43;;;;;;;10.63;5.18;;;18.90;92.40;;;;;;7387107;19;20015;-80
2023/08/29 08:00:13;;;;;;;9.75;4.93;;;19.00;92.30;;;;;;7388100;19;20011;-79
2023/08/29 08:02:42;;;;;;;11.75;4.50;;;18.90;92.10;;;;;;7389847;19;20026;-79
2023/08/29 08:05:13;;;;;;;10.80;4.53;;;19.10;92.20;;;;;;7406731;19;20006;-79
2023/08/29 08:07:42;;;;;;;10.13;4.60;;;19.20;91.90;;;;;;7406377;19;20111;-79
2023/08/29 08:10:15;;;;;;;9.27;4.07;;;19.40;91.70;;;;;;7385668;19;20018;-79
2023/08/29 08:12:46;;;;;;;10.43;3.72;;;19.50;91.60;;;;;;7386092;19;20054;-79
2023/08/29 08:15:15;;;;;;;5.85;3.47;;;19.50;91.10;;;;;;7383843;19;20067;-78
2023/08/29 08:17:43;;;;;;;5.95;2.78;;;19.50;90.50;;;;;;7382693;19;20063;-78
2023/08/29 08:20:13;;;;;;;6.68;3.72;;;19.60;90.20;;;;;;7390009;19;20019;-79
2023/08/29 08:22:42;;;;;;;12.38;3.40;;;19.70;90.20;;;;;;7408171;19;20011;-79
2023/08/29 08:25:14;;;;;;;8.00;2.80;;;19.70;89.50;;;;;;7388653;19;20062;-79
2023/08/29 08:27:43;;;;;;;4.75;2.42;;;19.70;88.80;;;;;;7386354;19;20030;-79
2023/08/29 08:30:14;;;;;;;11.77;3.15;;;19.80;88.90;;;;;;7387400;19;20082;-79
2023/08/29 08:32:43;;;;;;;3.80;2.72;;;19.80;89.50;;;;;;7386460;19;20011;-79
2023/08/29 08:35:13;;;;;;;6.18;3.35;;;19.90;89.00;;;;;;7396807;19;20051;-79
2023/08/29 08:37:41;;;;;;;9.75;2.80;;;19.90;88.00;;;;;;7409913;19;20007;-79
2023/08/29 08:40:14;;;;;;;7.72;2.42;;;20.00;87.80;;;;;;7389444;19;20014;-78
2023/08/29 08:42:44;;;;;;;9.65;2.85;;;20.00;88.50;;;;;;7388378;19;20003;-79
2023/08/29 08:45:16;;;;;;;4.97;2.60;;;20.10;88.00;;;;;;7387796;19;20108;-80
2023/08/29 08:47:46;;;;;;;7.57;2.83;;;20.00;87.50;;;;;;7388996;19;20306;-79
2023/08/29 08:50:14;;;;;;;5.45;2.50;;;20.00;87.30;;;;;;7389646;19;20010;-79
2023/08/29 08:52:44;;;;;;;4.45;2.33;;;20.10;86.90;;;;;;7412591;19;20015;-79
2023/08/29 08:55:16;;;;;;;7.07;2.83;;;20.20;86.90;;;;;;7388638;19;20006;-78
2023/08/29 08:57:45;;;;;;;3.03;2.30;;;20.20;86.70;;;;;;7392033;19;20049;-79
2023/08/29 09:00:15;;;;;;;6.95;2.40;;;20.20;85.40;;;;;;7389687;19;20046;-79
2023/08/29 09:02:45;;;;;;;3.03;1.92;;;20.30;85.70;;;;;;7384018;19;20027;-79
2023/08/29 09:05:14;;;;;;;5.22;2.15;;;20.30;85.00;;;;;;7382372;19;20010;-79
2023/08/29 09:07:44;;;;;;;3.05;2.05;;;20.30;84.00;;;;;;7406506;19;20011;-79
2023/08/29 09:10:16;;;;;;;2.67;1.85;;;20.30;83.30;;;;;;7382824;19;20007;-79
2023/08/29 09:12:50;;;;;;;4.10;2.00;;;20.40;83.70;;;;;;7382353;19;20023;-79
2023/08/29 09:15:19;;;;;;;1.52;1.42;;;20.30;81.30;;;;;;7382988;19;20385;-79
2023/08/29 09:17:49;;;;;;;8.60;2.10;;;20.40;82.20;;;;;;7382173;19;20226;-79
2023/08/29 09:20:18;;;;;;;4.22;2.00;;;20.40;81.80;;;;;;7382020;19;20007;-79
2023/08/29 09:22:48;;;;;;;3.85;1.60;;;20.50;82.00;;;;;;7405310;19;20265;-79
2023/08/29 09:25:20;;;;;;;5.30;1.80;;;20.60;82.30;;;;;;7383174;19;20003;-79
2023/08/29 09:27:50;;;;;;;2.55;1.70;;;20.70;82.30;;;;;;7381365;19;20256;-78
2023/08/29 09:30:20;;;;;;;4.00;1.90;;;20.70;81.80;;;;;;7382784;19;20020;-79
2023/08/29 09:32:50;;;;;;;2.03;1.53;;;20.70;80.20;;;;;;7381492;19;20117;-78
2023/08/29 09:35:24;;;;;;;4.38;1.80;;;20.80;79.00;;;;;;7382442;19;20264;-79
2023/08/29 09:37:54;;;;;;;4.68;1.77;;;20.80;78.80;;;;;;7410241;19;20246;-78
2023/08/29 09:40:26;;;;;;;3.20;1.73;;;20.90;78.80;;;;;;7390823;19;20017;-79
2023/08/29 09:42:56;;;;;;;6.07;2.22;;;20.90;78.80;;;;;;7390738;19;20074;-78
2023/08/29 09:45:25;;;;;;;4.25;1.67;;;21.00;78.60;;;;;;7392125;19;20116;-79
2023/08/29 09:47:55;;;;;;;3.80;1.90;;;21.10;78.80;;;;;;7389594;19;20016;-78
2023/08/29 09:50:24;;;;;;;4.90;1.80;;;21.10;79.20;;;;;;7388625;19;20035;-79
2023/08/29 09:52:55;;;;;;;1.60;1.38;;;21.10;79.00;;;;;;7412553;19;20255;-79
2023/08/29 09:55:28;;;;;;;4.97;2.00;;;20.90;77.80;;;;;;7395524;19;20010;-79
2023/08/29 09:57:57;;;;;;;4.40;1.85;;;20.80;78.40;;;;;;7394126;19;20011;-79
2023/08/29 10:00:26;;;;;;;4.47;1.50;;;20.70;77.50;;;;;;7392494;19;20007;-79
2023/08/29 10:03:01;;;;;;;2.70;1.67;;;20.70;77.80;;;;;;7391439;19;20250;-79
2023/08/29 10:05:35;;;;;;;3.25;1.80;;;20.70;77.40;;;;;;7388735;19;20007;-80
2023/08/29 10:08:10;;;;;;;5.53;1.70;;;20.70;76.80;;;;;;7411589;19;20003;-79
2023/08/29 10:10:43;;;;;;;1.98;1.40;;;20.80;76.90;;;;;;7391054;19;20019;-79
2023/08/29 10:13:13;;;;;;;6.78;1.92;;;20.80;76.40;;;;;;7390348;19;20007;-79
2023/08/29 10:15:44;;;;;;;5.30;1.58;;;20.90;76.10;;;;;;7389444;19;20015;-79
2023/08/29 10:18:13;;;;;;;2.40;1.70;;;21.00;75.80;;;;;;7388137;19;20007;-80
2023/08/29 10:20:44;;;;;;;3.22;1.70;;;21.20;75.40;;;;;;7389809;19;20023;-80
2023/08/29 10:23:14;;;;;;;2.97;1.48;;;21.30;75.70;;;;;;7391162;19;20010;-80
2023/08/29 10:25:48;;;;;;;3.10;1.77;;;21.50;75.10;;;;;;7413368;19;20361;-80
2023/08/29 10:28:17;;;;;;;1.65;1.50;;;21.70;73.60;;;;;;7389924;19;20003;-80
2023/08/29 10:30:50;;;;;;;1.75;1.60;;;21.70;73.60;;;;;;7388703;19;20007;-79
2023/08/29 10:33:18;;;;;;;2.95;1.65;;;21.80;73.70;;;;;;7386383;19;20014;-81
2023/08/29 10:35:50;;;;;;;6.00;1.73;;;21.80;73.90;;;;;;7385526;19;20214;-79
2023/08/29 10:38:20;;;;;;;2.47;1.80;;;21.80;74.80;;;;;;7389201;19;20007;-78
2023/08/29 10:41:06;;;;;;;3.53;1.90;;;21.60;76.90;;;;;;7410398;19;20007;-79
2023/08/29 10:43:36;;;;;;;4.40;1.80;;;21.40;76.20;;;;;;7393080;19;20002;-79
2023/08/29 10:46:20;;;;;;;4.45;1.95;;;21.20;78.30;;;;;;7390133;19;20002;-78
2023/08/29 10:48:55;;;;;;;2.15;1.70;;;21.10;80.90;;;;;;7388499;19;20093;-79
2023/08/29 10:51:26;;;;;;;3.08;1.80;;;20.80;82.50;;;;;;7397103;19;20070;-78
2023/08/29 10:53:56;;;;;;;7.38;2.28;;;20.80;83.00;;;;;;7406040;19;20050;-78
2023/08/29 10:56:41;;;;;;;5.73;1.90;;;20.60;84.00;;;;;;7405983;19;20019;-79
2023/08/29 10:59:29;;;;;;;3.67;2.15;;;20.40;85.50;;;;;;7426547;19;20014;-78
2023/08/29 11:02:23;;;;;;;4.78;2.30;;;20.60;85.60;;;;;;7404864;19;19999;-80
2023/08/29 11:04:53;;;;;;;11.05;2.05;;;20.60;85.20;;;;;;7389753;19;19999;-79
2023/08/29 11:07:27;;;;;;;7.60;2.08;;;20.70;85.50;;;;;;7386819;19;20007;-79
2023/08/29 11:10:15;;;;;;;4.57;1.80;;;20.70;85.50;;;;;;7388970;19;20025;-79
2023/08/29 11:13:12;;;;;;;4.60;2.10;;;20.70;86.10;;;;;;7390238;19;20256;-79
2023/08/29 11:16:08;;;;;;;11.23;2.05;;;20.60;85.90;;;;;;7388568;19;20042;-79
2023/08/29 11:18:37;;;;;;;5.70;2.25;;;20.80;85.80;;;;;;7388127;19;20046;-80
2023/08/29 11:21:07;;;;;;;3.35;1.98;;;20.80;86.10;;;;;;7387365;19;20007;-78
2023/08/29 11:23:40;;;;;;;5.37;1.90;;;20.80;85.20;;;;;;7388551;19;20007;-78
2023/08/29 11:26:09;;;;;;;4.50;2.30;;;20.70;85.90;;;;;;7412017;19;20026;-79
2023/08/29 11:28:45;;;;;;;5.53;2.53;;;20.90;85.20;;;;;;7389484;19;20014;-79
2023/08/29 11:31:18;;;;;;;5.25;1.80;;;21.00;84.70;;;;;;7388801;19;20062;-79
2023/08/29 11:33:48;;;;;;;4.45;2.03;;;21.10;84.70;;;;;;7387649;19;20074;-79
2023/08/29 11:36:18;;;;;;;8.45;2.30;;;21.20;83.80;;;;;;7386655;19;20027;-79
2023/08/29 11:38:47;;;;;;;4.60;1.90;;;21.30;82.90;;;;;;7389460;19;20050;-80
2023/08/29 11:41:16;;;;;;;5.50;2.08;;;21.40;81.90;;;;;;7387406;19;20007;-79
2023/08/29 11:43:47;;;;;;;3.65;2.05;;;21.50;82.50;;;;;;7410411;19;20023;-79
2023/08/29 11:46:17;;;;;;;7.10;2.10;;;21.60;81.50;;;;;;7388356;19;20250;-79
2023/08/29 11:48:46;;;;;;;8.75;2.58;;;21.60;81.20;;;;;;7383595;19;20377;-79
2023/08/29 11:51:15;;;;;;;9.45;2.10;;;21.70;81.00;;;;;;7385921;19;20006;-79
2023/08/29 11:53:44;;;;;;;3.92;1.90;;;21.60;79.50;;;;;;7387747;19;20002;-80
2023/08/29 11:56:13;;;;;;;3.92;1.85;;;21.50;79.40;;;;;;7389169;19;20007;-80
2023/08/29 11:58:42;;;;;;;6.22;2.03;;;21.60;79.70;;;;;;7410967;19;20021;-80
2023/08/29 12:01:13;;;;;;;4.28;2.03;;;21.80;78.60;;;;;;7389308;19;20015;-79
2023/08/29 12:03:42;;;;;;;;;;;22.00;78.80;;;;;;7393467;19;20011;-80
2023/08/29 12:06:13;;;;;;;7.60;2.15;;;22.00;78.20;;;;;;7388277;19;19903;-79
2023/08/29 12:08:43;;;;;;;2.33;1.80;;;22.00;78.00;;;;;;7386921;19;20006;-79
2023/08/29 12:11:15;;;;;;;7.22;2.13;;;22.10;76.40;;;;;;7398940;19;20011;-78
2023/08/29 12:13:59;;;;;;;8.00;2.10;;;22.00;75.60;;;;;;7411454;19;20015;-80
2023/08/29 12:16:31;;;;;;;3.90;2.00;;;21.90;76.60;;;;;;7388745;19;20499;-80
2023/08/29 12:19:08;;;;;;;10.15;2.20;;;22.10;75.00;;;;;;7389605;19;20003;-80
2023/08/29 12:21:37;;;;;;;3.67;2.08;;;22.20;75.90;;;;;;7388208;19;20070;-80
2023/08/29 12:24:13;;;;;;;6.10;1.80;;;22.40;75.60;;;;;;7388437;19;20007;-80
2023/08/29 12:26:42;;;;;;;14.90;2.50;;;22.60;75.30;;;;;;7391456;19;20062;-80
2023/08/29 12:29:11;;;;;;;5.05;2.13;;;22.70;73.30;;;;;;7407236;19;20006;-79
2023/08/29 12:31:43;;;;;;;8.98;2.42;;;22.80;71.70;;;;;;7411947;19;20011;-79
2023/08/29 12:34:11;;;;;;;5.18;2.00;;;22.90;71.30;;;;;;7390454;19;20002;-80
2023/08/29 12:36:40;;;;;;;4.35;2.08;;;23.00;71.40;;;;;;7391060;19;20491;-79
2023/08/29 12:39:10;;;;;;;4.50;2.20;;;23.10;69.70;;;;;;7390675;19;20017;-79
2023/08/29 12:41:39;;;;;;;7.65;2.33;;;23.10;70.00;;;;;;7392389;19;20249;-79
2023/08/29 12:44:09;;;;;;;5.20;2.13;;;23.30;70.00;;;;;;7418601;19;20010;-79
2023/08/29 12:46:37;;;;;;;4.38;2.00;;;23.30;69.70;;;;;;7393625;19;20002;-79
2023/08/29 12:49:09;;;;;;;4.88;1.90;;;23.20;70.00;;;;;;7390277;19;20007;-80
2023/08/29 12:51:38;;;;;;;5.00;2.13;;;23.20;69.50;;;;;;7392120;19;20011;-79
2023/08/29 12:54:07;;;;;;;6.25;2.20;;;23.20;67.90;;;;;;7392557;19;20032;-80
2023/08/29 12:56:36;;;;;;;4.63;2.13;;;23.10;68.90;;;;;;7389884;19;20018;-79
2023/08/29 12:59:04;;;;;;;3.13;1.88;;;22.80;70.40;;;;;;7412485;19;20018;-80
2023/08/29 13:01:34;;;;;;;7.90;2.10;;;22.50;72.80;;;;;;7387775;19;20231;-80